ウルムチ の空港の天気 - METARとTAF

ウルムチ地窩堡国際空港 ( ZWWW / URC ) - 中国 新疆ウイグル自治区ウルムチ市
飛行場実況気象(Metar)
観測時間05/25 11:00 CST (05/25 03:00 UTC)
風向・風速南南東 3m/s
視程10km以上
天気現象
なし
気温15℃
湿度36%
気圧1027hPa
METARZWWW 250300Z 15003MPS 110V180 CAVOK 15/M00 Q1027 NOSIG
過去の天気等 Google飛行場航空写真 Wunderground天気予報

過去48時間のMETAR

飛行場予報(TAF)
発表時間: 5/25 05:14 CST (5/24 21:14 UTC)
予報対象時間: 25日8時 CST ~ 26日8時 CST
風向・風速南南東 4m/s
視程10km以上
なし
25日11時 CST ~ 25日12時 CST に徐々に
風向・風速北 4m/s
25日21時 CST ~ 25日22時 CST に徐々に
風向・風速南 4m/s
TAF ZWWW 242114Z 2500/2524 16004MPS CAVOK TX20/2509Z TN08/2523Z
BECMG 2503/2504 36004MPS
BECMG 2513/2514 18004MPS